Time;durP1;ratioP1;P1;durP2;ratioP2;P2;SDS_P1;SDS_P2;PMS_P1;PMS_P2;Temp;Humidity;BMP_temperature;BMP_pressure;BME280_temperature;BME280_humidity;BME280_pressure;Samples;Min_cycle;Max_cycle;Signal;HPM_P1;HPM_P2
2022/03/27 00:33:23;;;;;;;;;;;;;;;16.89;54.04;103431.88;6343035;22;19903;-83
2022/03/27 00:42:51;;;;;;;;;;;;;;;16.86;53.74;103422.25;6240873;23;19972;-83
2022/03/27 00:52:41;;;;;;;;;;;;;;;16.80;53.15;103422.03;6305893;22;19922;-83
2022/03/27 01:02:14;;;;;;;;;;;;;;;16.82;53.30;103422.97;6304564;22;19939;-83
2022/03/27 01:14:52;;;;;;;;;;;;;;;16.79;53.80;103417.66;6182102;23;19908;-83
2022/03/27 01:30:28;;;;;;;;;;;;;;;16.72;53.39;103420.84;6094065;23;19928;-83
2022/03/27 01:39:56;;;;;;;;;;;;;;;16.75;53.56;103411.44;5980132;24;19971;-82
2022/03/27 01:42:59;;;;;;;;;;;;;;;16.82;53.37;103409.97;5921061;24;19896;-83
2022/03/27 01:49:07;;;;;;;;;;;;;;;16.83;52.91;103410.03;5942961;23;20007;-83
2022/03/27 01:55:16;;;;;;;;;;;;;;;16.70;52.97;103417.31;6037981;23;19951;-82
2022/03/27 02:04:11;;;;;;;;;;;;;;;16.65;53.04;103424.94;6153284;23;19916;-84
2022/03/27 02:10:18;;;;;;;;;;;;;;;16.60;53.05;103409.19;6119764;23;19963;-82
2022/03/27 02:16:25;;;;;;;;;;;;;;;16.60;52.90;103410.91;6064914;23;19908;-81
2022/03/27 02:22:31;;;;;;;;;;;;;;;16.59;52.71;103401.31;6064781;23;19970;-81
2022/03/27 02:29:24;;;;;;;;;;;;;;;16.65;52.83;103399.81;6129916;23;20054;-82
2022/03/27 02:47:56;;;;;;;;;;;;;;;16.65;52.35;103399.81;6212707;23;19912;-83
2022/03/27 02:53:53;;;;;;;;;;;;;;;16.61;52.33;103389.28;6212130;23;19943;-82
2022/03/27 03:18:27;;;;;;;;;;;;;;;16.58;51.65;103387.44;6181011;23;19919;-82
2022/03/27 03:24:14;;;;;;;;;;;;;;;16.45;51.68;103377.47;6176802;23;20056;-81
2022/03/27 03:30:01;;;;;;;;;;;;;;;16.45;51.72;103387.84;6302601;22;19922;-82
2022/03/27 03:35:48;;;;;;;;;;;;;;;16.48;51.67;103377.56;6298454;22;19918;-81
2022/03/27 03:41:19;;;;;;;;;;;;;;;16.46;51.69;103368.81;6297169;22;19930;-81
2022/03/27 03:44:03;;;;;;;;;;;;;;;16.47;51.58;103364.53;6269562;22;19907;-81
2022/03/27 03:46:28;;;;;;;;;;;;;;;16.40;51.62;103374.69;6307184;22;19915;-80
2022/03/27 03:48:54;;;;;;;;;;;;;;;16.44;51.62;103370.50;6264805;22;20358;-81
2022/03/27 03:51:19;;;;;;;;;;;;;;;16.47;51.38;103373.19;6315701;22;19976;-81
2022/03/27 03:53:44;;;;;;;;;;;;;;;16.49;51.19;103371.53;6288599;22;19911;-81
2022/03/27 03:56:11;;;;;;;;;;;;;;;16.51;51.34;103371.59;6288733;22;19911;-81
2022/03/27 03:58:36;;;;;;;;;;;;;;;16.33;51.25;103372.72;6289147;22;19914;-81
2022/03/27 04:01:03;;;;;;;;;;;;;;;16.35;51.13;103371.06;6263813;22;20323;-81
2022/03/27 04:03:29;;;;;;;;;;;;;;;16.29;51.31;103378.63;6316488;22;19976;-80
2022/03/27 04:05:54;;;;;;;;;;;;;;;16.31;51.01;103381.25;6291173;22;19907;-81
2022/03/27 04:08:19;;;;;;;;;;;;;;;16.25;51.02;103382.81;6265354;22;19915;-81
2022/03/27 04:10:46;;;;;;;;;;;;;;;16.25;51.04;103380.22;6293038;22;19911;-81
2022/03/27 04:13:11;;;;;;;;;;;;;;;16.39;51.07;103383.31;6293722;22;19906;-82
2022/03/27 04:15:38;;;;;;;;;;;;;;;16.39;51.14;103382.44;6297675;22;19929;-82
2022/03/27 04:18:11;;;;;;;;;;;;;;;16.38;51.33;103376.34;6326621;22;19913;-82
2022/03/27 04:20:38;;;;;;;;;;;;;;;16.40;51.20;103373.81;6297148;22;19907;-82
2022/03/27 04:23:03;;;;;;;;;;;;;;;16.45;50.98;103377.47;6264860;23;19918;-82
2022/03/27 04:25:51;;;;;;;;;;;;;;;16.43;50.90;103368.72;6267543;23;19908;-81
2022/03/27 04:31:02;;;;;;;;;;;;;;;16.36;50.74;103374.53;6260253;22;19919;-81
2022/03/27 04:33:30;;;;;;;;;;;;;;;16.40;50.68;103374.69;6234757;23;19936;-82
2022/03/27 04:36:21;;;;;;;;;;;;;;;16.43;50.57;103379.13;6232236;23;19908;-81
2022/03/27 04:39:05;;;;;;;;;;;;;;;16.44;50.57;103373.97;6230070;23;19919;-82
2022/03/27 04:44:52;;;;;;;;;;;;;;;16.53;50.62;103386.41;6233823;23;19919;-82
2022/03/27 04:47:26;;;;;;;;;;;;;;;16.49;50.13;103378.47;6234104;23;19916;-82
2022/03/27 04:49:59;;;;;;;;;;;;;;;16.53;50.34;103385.53;6235055;23;19962;-82
2022/03/27 04:52:31;;;;;;;;;;;;;;;16.49;50.74;103375.88;6229626;23;19908;-82
2022/03/27 04:55:00;;;;;;;;;;;;;;;16.45;50.22;103377.47;6216258;23;19915;-82
2022/03/27 04:57:49;;;;;;;;;;;;;;;16.44;50.19;103375.69;6235174;23;19908;-82
2022/03/27 05:00:19;;;;;;;;;;;;;;;16.41;50.32;103376.44;6233541;23;19931;-82
2022/03/27 05:02:53;;;;;;;;;;;;;;;16.41;50.05;103381.66;6208211;23;19908;-82
2022/03/27 05:05:19;;;;;;;;;;;;;;;16.43;50.16;103369.59;6233239;23;19915;-81
2022/03/27 05:07:45;;;;;;;;;;;;;;;16.42;50.17;103379.97;6182237;23;20341;-81
2022/03/27 05:10:17;;;;;;;;;;;;;;;16.41;49.96;103380.78;6237719;23;19907;-82
2022/03/27 05:12:57;;;;;;;;;;;;;;;16.34;49.84;103384.88;6263619;22;19907;-81
2022/03/27 05:15:26;;;;;;;;;;;;;;;16.34;49.68;103381.38;6262919;23;19915;-81
2022/03/27 05:17:59;;;;;;;;;;;;;;;16.28;49.63;103383.75;6260418;22;20340;-82
2022/03/27 05:20:27;;;;;;;;;;;;;;;16.28;49.66;103382.03;6285833;22;20279;-81
2022/03/27 05:22:53;;;;;;;;;;;;;;;16.35;49.47;103385.75;6257256;23;19927;-81
2022/03/27 05:25:19;;;;;;;;;;;;;;;16.37;49.58;103381.50;6286571;22;20013;-81
2022/03/27 05:28:04;;;;;;;;;;;;;;;16.29;49.59;103381.22;6262594;22;19919;-82
2022/03/27 05:30:32;;;;;;;;;;;;;;;16.31;49.38;103387.38;6263324;22;19934;-81
2022/03/27 05:33:20;;;;;;;;;;;;;;;16.26;49.20;103383.69;6262332;22;19911;-82
2022/03/27 05:39:10;;;;;;;;;;;;;;;16.33;49.29;103382.19;6270284;23;19918;-82
2022/03/27 05:45:06;;;;;;;;;;;;;;;16.38;49.38;103385.88;6269998;23;19958;-82
2022/03/27 05:47:44;;;;;;;;;;;;;;;16.34;49.41;103384.88;6274589;22;19915;-82
2022/03/27 05:53:36;;;;;;;;;;;;;;;16.30;49.24;103393.38;6266089;23;19934;-80
2022/03/27 05:56:03;;;;;;;;;;;;;;;16.31;49.33;103396.84;6261056;22;19912;-81
2022/03/27 05:58:31;;;;;;;;;;;;;;;16.29;49.51;103386.44;6263026;23;19907;-81
2022/03/27 06:01:00;;;;;;;;;;;;;;;16.31;49.45;103394.25;6260867;22;20414;-81
2022/03/27 06:03:25;;;;;;;;;;;;;;;16.31;49.18;103394.25;6259009;23;19908;-81
2022/03/27 06:05:57;;;;;;;;;;;;;;;16.33;49.48;103392.59;6261197;22;19914;-81
2022/03/27 06:08:22;;;;;;;;;;;;;;;16.29;49.25;103406.31;6263458;23;19947;-80
2022/03/27 06:10:49;;;;;;;;;;;;;;;16.30;49.45;103395.09;6289309;22;19916;-81
2022/03/27 06:13:19;;;;;;;;;;;;;;;16.35;49.11;103396.13;6265838;22;19930;-82
2022/03/27 06:15:45;;;;;;;;;;;;;;;16.41;49.14;103407.63;6261706;23;19907;-81
2022/03/27 06:18:12;;;;;;;;;;;;;;;16.50;49.17;103395.81;6288335;22;19912;-81
2022/03/27 06:20:39;;;;;;;;;;;;;;;16.66;48.97;103403.34;6262757;23;19950;-82
2022/03/27 06:23:06;;;;;;;;;;;;;;;16.74;48.97;103414.00;6264340;23;19907;-82
2022/03/27 06:25:32;;;;;;;;;;;;;;;16.79;49.09;103404.66;6286868;22;19912;-81
2022/03/27 06:27:59;;;;;;;;;;;;;;;16.77;48.90;103412.41;6258557;23;19907;-81
2022/03/27 06:30:27;;;;;;;;;;;;;;;16.87;48.59;103416.22;6258881;22;19912;-81
2022/03/27 06:32:52;;;;;;;;;;;;;;;17.19;47.86;103413.81;6281770;22;19912;-81
2022/03/27 06:57:34;;;;;;;;;;;;;;;17.87;45.28;103404.72;6317894;22;19910;-82
2022/03/27 07:05:36;;;;;;;;;;;;;;;18.45;46.16;103397.72;6313426;22;19919;-80
2022/03/27 07:11:24;;;;;;;;;;;;;;;18.46;44.97;103398.59;6329619;22;19922;-81
2022/03/27 07:13:49;;;;;;;;;;;;;;;18.47;43.89;103393.41;6322568;22;20032;-80
2022/03/27 07:16:16;;;;;;;;;;;;;;;18.44;43.84;103392.44;6288269;22;19907;-79
2022/03/27 07:18:41;;;;;;;;;;;;;;;18.49;43.73;103390.88;6313552;22;19911;-79
2022/03/27 07:21:06;;;;;;;;;;;;;;;18.48;43.35;103387.34;6259418;22;20323;-78
2022/03/27 07:23:32;;;;;;;;;;;;;;;18.48;42.41;103395.16;6258907;22;19911;-79
2022/03/27 07:25:57;;;;;;;;;;;;;;;18.50;42.43;103385.66;6312573;22;19911;-78
2022/03/27 07:28:24;;;;;;;;;;;;;;;18.45;42.69;103394.22;6284308;22;19926;-78
2022/03/27 07:30:50;;;;;;;;;;;;;;;18.51;43.76;103391.78;6283887;22;19938;-78
2022/03/27 07:33:16;;;;;;;;;;;;;;;18.51;43.32;103399.63;6284387;22;20235;-78
2022/03/27 07:35:41;;;;;;;;;;;;;;;18.45;43.65;103394.22;6284559;22;19942;-78
2022/03/27 07:38:07;;;;;;;;;;;;;;;18.44;41.01;103390.75;6284482;22;19911;-78
2022/03/27 07:40:33;;;;;;;;;;;;;;;18.49;41.33;103396.09;6284924;22;19914;-79
2022/03/27 07:42:59;;;;;;;;;;;;;;;18.53;40.80;103390.09;6259533;22;19911;-79
2022/03/27 07:45:26;;;;;;;;;;;;;;;18.53;43.06;103392.72;6286176;22;19961;-79
2022/03/27 07:47:52;;;;;;;;;;;;;;;18.52;41.22;103392.66;6286768;22;19953;-78
2022/03/27 07:50:19;;;;;;;;;;;;;;;18.58;41.31;103391.09;6312291;22;20383;-78
2022/03/27 07:52:44;;;;;;;;;;;;;;;18.57;39.79;103393.66;6285636;22;19907;-78
2022/03/27 07:55:11;;;;;;;;;;;;;;;18.56;42.16;103389.31;6284883;22;20402;-78
2022/03/27 07:57:36;;;;;;;;;;;;;;;18.52;43.05;103390.94;6311376;22;19907;-78
2022/03/27 08:00:03;;;;;;;;;;;;;;;18.38;41.56;103394.88;6286426;22;20338;-78
2022/03/27 08:02:34;;;;;;;;;;;;;;;18.17;41.87;103397.78;6258476;22;19911;-78
2022/03/27 08:05:00;;;;;;;;;;;;;;;18.37;41.80;103396.59;6285886;22;19914;-78
2022/03/27 08:07:25;;;;;;;;;;;;;;;18.47;43.12;103393.41;6284584;22;19996;-78
2022/03/27 08:09:50;;;;;;;;;;;;;;;18.56;40.34;103395.41;6283931;22;19918;-79
2022/03/27 08:12:17;;;;;;;;;;;;;;;18.63;40.48;103404.25;6285745;22;19946;-78
2022/03/27 08:14:43;;;;;;;;;;;;;;;18.60;39.04;103396.38;6258528;22;19911;-78
2022/03/27 08:17:09;;;;;;;;;;;;;;;18.62;39.83;103394.69;6284852;22;19981;-78
2022/03/27 08:19:34;;;;;;;;;;;;;;;18.63;39.42;103399.91;6260462;22;19914;-78
2022/03/27 08:22:01;;;;;;;;;;;;;;;18.64;39.53;103393.88;6259537;22;19988;-78
2022/03/27 08:24:26;;;;;;;;;;;;;;;18.66;39.82;103393.91;6285197;22;19917;-78
2022/03/27 08:26:59;;;;;;;;;;;;;;;18.63;42.26;103386.88;6312351;22;19950;-78
2022/03/27 08:29:26;;;;;;;;;;;;;;;18.60;43.17;103399.84;6285055;22;20354;-78
2022/03/27 08:31:54;;;;;;;;;;;;;;;18.59;41.77;103395.47;6257672;22;19918;-78
2022/03/27 08:34:20;;;;;;;;;;;;;;;18.62;40.23;103397.31;6283582;22;19960;-78
2022/03/27 08:36:46;;;;;;;;;;;;;;;18.56;42.76;103402.34;6257817;22;19961;-78
2022/03/27 08:39:11;;;;;;;;;;;;;;;18.57;38.54;103393.66;6310800;22;19949;-78
2022/03/27 08:41:39;;;;;;;;;;;;;;;18.59;40.94;103391.97;6257545;22;19919;-78
2022/03/27 08:44:05;;;;;;;;;;;;;;;18.60;40.68;103399.84;6283695;22;19907;-78
2022/03/27 08:46:30;;;;;;;;;;;;;;;18.59;42.40;103397.19;6283351;22;19918;-77
2022/03/27 08:49:08;;;;;;;;;;;;;;;18.58;40.77;103392.84;6283914;22;19914;-78
2022/03/27 08:51:38;;;;;;;;;;;;;;;18.56;37.46;103392.78;6283303;22;19914;-79
2022/03/27 08:54:05;;;;;;;;;;;;;;;18.55;37.27;103391.00;6284548;22;19907;-80
2022/03/27 08:56:32;;;;;;;;;;;;;;;18.58;38.44;103390.22;6288238;22;19986;-79
2022/03/27 08:58:59;;;;;;;;;;;;;;;18.60;38.72;103391.16;6285834;22;19914;-79
2022/03/27 09:01:27;;;;;;;;;;;;;;;18.59;38.64;103385.03;6286899;22;19906;-79
2022/03/27 09:03:55;;;;;;;;;;;;;;;18.63;41.63;103388.63;6318573;22;20024;-81
2022/03/27 09:06:26;;;;;;;;;;;;;;;18.61;41.26;103388.56;6296947;22;19934;-81
2022/03/27 09:08:54;;;;;;;;;;;;;;;18.61;39.94;103390.31;6332228;22;19922;-81
2022/03/27 09:11:39;;;;;;;;;;;;;;;18.62;37.87;103386.88;6302624;22;19915;-81
2022/03/27 09:17:08;;;;;;;;;;;;;;;18.66;37.66;103384.38;6315339;22;19925;-80
2022/03/27 09:19:35;;;;;;;;;;;;;;;18.60;38.81;103384.22;6271570;22;19920;-80
2022/03/27 09:22:21;;;;;;;;;;;;;;;18.58;41.52;103380.69;6297200;22;19918;-80
2022/03/27 09:24:49;;;;;;;;;;;;;;;18.60;37.42;103376.38;6287819;22;19908;-80
2022/03/27 09:30:18;;;;;;;;;;;;;;;18.53;38.91;103382.28;6291641;22;19915;-81
2022/03/27 09:32:45;;;;;;;;;;;;;;;18.45;39.08;103379.47;6288799;22;19908;-80
2022/03/27 09:35:33;;;;;;;;;;;;;;;18.43;43.07;103382.88;6292135;22;19911;-81
2022/03/27 09:38:13;;;;;;;;;;;;;;;18.44;40.02;103377.72;6292163;22;19907;-80
2022/03/27 09:40:39;;;;;;;;;;;;;;;18.44;44.10;103387.22;6293613;22;19907;-81
2022/03/27 09:43:16;;;;;;;;;;;;;;;18.42;40.81;103383.69;6293285;22;20056;-81
2022/03/27 09:46:02;;;;;;;;;;;;;;;18.36;41.87;103383.56;6297473;22;19951;-81
2022/03/27 09:49:03;;;;;;;;;;;;;;;18.29;42.09;103380.78;6242079;22;19942;-81
2022/03/27 10:10:14;;;;;;;;;;;;;;;18.25;43.23;103373.69;6283632;22;19923;-80
2022/03/27 11:42:49;;;;;;;;;;;;;;;17.99;40.15;103309.56;6257801;22;20281;-82
2022/03/27 11:45:24;;;;;;;;;;;;;;;18.01;40.33;103297.47;6303722;22;19919;-82
2022/03/27 11:48:12;;;;;;;;;;;;;;;18.02;40.17;103307.03;6333978;22;19918;-82
2022/03/27 11:53:46;;;;;;;;;;;;;;;18.04;39.30;103297.53;6331865;22;19914;-82
2022/03/27 11:59:28;;;;;;;;;;;;;;;18.12;40.06;103288.19;6330587;22;19965;-82
2022/03/27 12:05:01;;;;;;;;;;;;;;;18.11;40.25;103280.34;6323969;22;19967;-82
2022/03/27 12:07:47;;;;;;;;;;;;;;;18.14;40.11;103280.41;6327690;22;19910;-82
2022/03/27 12:13:17;;;;;;;;;;;;;;;18.17;40.64;103280.50;6322993;22;19914;-81
2022/03/27 12:15:49;;;;;;;;;;;;;;;18.19;40.41;103274.50;6323339;22;19959;-81
2022/03/27 12:18:24;;;;;;;;;;;;;;;18.24;40.80;103275.47;6298380;22;19911;-82
2022/03/27 12:20:50;;;;;;;;;;;;;;;18.18;40.32;103269.22;6271643;22;20311;-81
2022/03/27 12:23:32;;;;;;;;;;;;;;;18.20;41.06;103262.34;6292535;22;19911;-81
2022/03/27 12:29:39;;;;;;;;;;;;;;;18.21;40.45;103272.81;6291669;22;19923;-81
2022/03/27 12:31:34;;;;;;;;;;;;;;;18.12;39.10;103266.44;6317932;22;19958;-81
2022/03/27 12:33:59;;;;;;;;;;;;;;;18.16;39.57;103269.22;6266513;22;19911;-82
2022/03/27 12:36:26;;;;;;;;;;;;;;;18.18;39.27;103262.31;6295882;22;19908;-82
2022/03/27 12:38:51;;;;;;;;;;;;;;;18.17;38.86;103255.31;6269747;22;19918;-82
2022/03/27 12:41:37;;;;;;;;;;;;;;;18.15;38.83;103257.00;6296179;22;19915;-81
2022/03/27 14:10:00;;;;;;;;;;;;;;;18.43;38.42;103162.13;6330489;22;19945;-80
2022/03/27 14:12:25;;;;;;;;;;;;;;;18.46;39.33;103154.38;6275308;22;19921;-80
2022/03/27 14:14:50;;;;;;;;;;;;;;;18.41;39.30;103156.00;6310766;22;19930;-78
2022/03/27 14:17:16;;;;;;;;;;;;;;;18.48;40.80;103152.69;6281511;22;19919;-76
2022/03/27 14:19:41;;;;;;;;;;;;;;;18.42;39.14;103139.53;6311914;22;19945;-76
2022/03/27 14:22:06;;;;;;;;;;;;;;;18.36;38.99;103142.00;6312363;22;19911;-77
2022/03/27 14:24:31;;;;;;;;;;;;;;;18.37;41.46;103145.47;6282799;22;19911;-77
2022/03/27 14:26:57;;;;;;;;;;;;;;;18.35;40.24;103139.34;6282067;22;20325;-77
2022/03/27 14:29:22;;;;;;;;;;;;;;;18.30;39.96;103137.50;6282622;22;19915;-76
2022/03/27 14:31:51;;;;;;;;;;;;;;;18.34;40.67;103133.25;6309278;22;19911;-77
2022/03/27 14:34:16;;;;;;;;;;;;;;;18.37;40.73;103130.69;6259943;22;19915;-76
2022/03/27 14:36:43;;;;;;;;;;;;;;;18.35;40.69;103135.00;6312752;22;19942;-76
2022/03/27 14:39:08;;;;;;;;;;;;;;;18.32;39.64;103126.25;6311304;22;19907;-76
2022/03/27 14:41:33;;;;;;;;;;;;;;;18.29;40.59;103124.41;6311526;22;20216;-76
2022/03/27 14:43:58;;;;;;;;;;;;;;;18.27;40.59;103123.53;6284120;22;20184;-77
2022/03/27 14:46:24;;;;;;;;;;;;;;;18.31;40.57;103120.13;6284356;22;20340;-77
2022/03/27 14:48:49;;;;;;;;;;;;;;;18.28;39.95;103113.13;6311341;22;20320;-77
2022/03/27 14:51:14;;;;;;;;;;;;;;;18.29;40.26;103119.22;6258878;22;20311;-78
2022/03/27 14:56:24;;;;;;;;;;;;;;;18.27;40.47;103105.28;6288089;22;19918;-78
2022/03/27 14:58:50;;;;;;;;;;;;;;;18.26;40.53;103108.72;6283460;22;19907;-78
2022/03/27 15:01:15;;;;;;;;;;;;;;;18.25;40.34;103107.84;6283521;22;20006;-77
2022/03/27 15:03:40;;;;;;;;;;;;;;;18.29;41.10;103100.97;6283645;22;19934;-78
2022/03/27 15:06:06;;;;;;;;;;;;;;;18.28;40.57;103094.00;6252063;22;19923;-77
2022/03/27 15:08:31;;;;;;;;;;;;;;;18.32;41.43;103094.97;6252310;22;19911;-78
2022/03/27 15:10:57;;;;;;;;;;;;;;;18.36;41.51;103099.41;6279455;22;20335;-78
2022/03/27 15:13:23;;;;;;;;;;;;;;;18.35;41.45;103090.69;6280109;22;19912;-78
2022/03/27 15:15:48;;;;;;;;;;;;;;;18.35;41.87;103095.03;6279101;22;19911;-78
2022/03/27 15:18:13;;;;;;;;;;;;;;;18.31;41.57;103088.84;6278006;22;20343;-77
2022/03/27 15:20:40;;;;;;;;;;;;;;;18.27;41.88;103085.31;6277852;22;19911;-79
2022/03/27 15:23:05;;;;;;;;;;;;;;;18.25;41.81;103084.41;6252218;22;19952;-78
2022/03/27 15:25:31;;;;;;;;;;;;;;;18.26;42.58;103091.34;6277778;22;19982;-79
2022/03/27 15:27:56;;;;;;;;;;;;;;;18.21;42.44;103082.56;6277325;22;19915;-78
2022/03/27 15:30:21;;;;;;;;;;;;;;;18.16;41.86;103085.88;6278304;22;20209;-77
2022/03/27 15:32:47;;;;;;;;;;;;;;;18.19;42.17;103081.63;6278150;22;19911;-78
2022/03/27 15:35:12;;;;;;;;;;;;;;;18.21;41.91;103079.94;6252810;22;20294;-77
2022/03/27 15:37:37;;;;;;;;;;;;;;;18.19;41.07;103079.03;6278962;22;19938;-76
2022/03/27 15:40:07;;;;;;;;;;;;;;;18.17;41.93;103077.25;6280319;22;19942;-76
2022/03/27 15:42:35;;;;;;;;;;;;;;;18.14;41.66;103075.44;6279858;22;19917;-76
2022/03/27 15:45:02;;;;;;;;;;;;;;;18.14;41.18;103072.84;6252110;22;19941;-76
2022/03/27 15:47:28;;;;;;;;;;;;;;;18.16;41.40;103071.16;6252383;22;19911;-75
2022/03/27 15:49:53;;;;;;;;;;;;;;;18.14;41.24;103062.41;6278034;22;20291;-78
2022/03/27 15:52:18;;;;;;;;;;;;;;;18.08;41.65;103057.94;6277918;22;19911;-78
2022/03/27 15:54:43;;;;;;;;;;;;;;;18.15;41.71;103060.69;6279171;22;19950;-78
2022/03/27 15:57:10;;;;;;;;;;;;;;;18.16;41.27;103057.22;6279572;22;19911;-78
2022/03/27 15:59:35;;;;;;;;;;;;;;;18.20;41.60;103053.84;6278741;22;19907;-78
2022/03/27 16:02:01;;;;;;;;;;;;;;;18.20;41.70;103053.84;6277205;22;20251;-78
2022/03/27 16:04:26;;;;;;;;;;;;;;;18.21;41.31;103053.88;6277139;22;19966;-78
2022/03/27 16:06:51;;;;;;;;;;;;;;;18.17;40.97;103059.00;6276865;22;19926;-78
2022/03/27 16:09:16;;;;;;;;;;;;;;;18.15;40.90;103055.47;6277123;22;20326;-78
2022/03/27 16:11:42;;;;;;;;;;;;;;;18.17;41.35;103048.56;6277280;22;19922;-78
2022/03/27 16:14:07;;;;;;;;;;;;;;;18.13;40.93;103054.56;6278113;22;19947;-78
2022/03/27 16:16:32;;;;;;;;;;;;;;;18.11;40.72;103046.69;6278529;22;19911;-77
2022/03/27 16:18:58;;;;;;;;;;;;;;;18.12;41.13;103048.47;6276724;22;20339;-77
2022/03/27 16:21:24;;;;;;;;;;;;;;;18.12;41.17;103040.66;6277061;22;19908;-77
2022/03/27 16:23:49;;;;;;;;;;;;;;;18.16;41.46;103041.59;6251457;22;19907;-76
2022/03/27 16:26:15;;;;;;;;;;;;;;;18.14;41.57;103045.88;6252124;22;19946;-76
2022/03/27 16:28:40;;;;;;;;;;;;;;;18.09;41.62;103048.38;6279009;22;20374;-76
2022/03/27 16:31:06;;;;;;;;;;;;;;;18.11;41.76;103035.41;6251281;22;20354;-77
2022/03/27 16:33:31;;;;;;;;;;;;;;;18.13;42.64;103038.91;6277166;22;20239;-77
2022/03/27 16:35:57;;;;;;;;;;;;;;;18.07;42.21;103032.72;6251708;22;19953;-77
2022/03/27 16:38:26;;;;;;;;;;;;;;;18.03;41.35;103040.41;6278786;22;19965;-77
2022/03/27 16:40:51;;;;;;;;;;;;;;;18.06;41.67;103048.31;6278267;22;19907;-78
2022/03/27 16:43:19;;;;;;;;;;;;;;;18.04;41.67;103045.66;6277082;22;19966;-75
2022/03/27 16:45:45;;;;;;;;;;;;;;;18.04;41.96;103042.19;6276802;22;19911;-76
2022/03/27 16:48:10;;;;;;;;;;;;;;;18.09;42.47;103037.97;6278423;22;19957;-76
2022/03/27 16:50:36;;;;;;;;;;;;;;;18.10;42.60;103042.34;6251352;22;20252;-76
2022/03/27 16:53:01;;;;;;;;;;;;;;;18.04;42.36;103043.06;6251787;22;19911;-76
2022/03/27 16:55:27;;;;;;;;;;;;;;;17.99;42.61;103042.09;6278367;22;19915;-76
2022/03/27 16:57:52;;;;;;;;;;;;;;;17.98;42.04;103049.84;6276647;22;19918;-76
2022/03/27 17:00:18;;;;;;;;;;;;;;;17.96;42.36;103044.59;6278812;22;19915;-76
2022/03/27 17:02:43;;;;;;;;;;;;;;;18.03;43.32;103048.22;6251317;22;19911;-76
2022/03/27 17:05:09;;;;;;;;;;;;;;;18.02;43.33;103049.97;6277765;22;19961;-77
2022/03/27 17:07:35;;;;;;;;;;;;;;;17.98;43.18;103042.03;6278616;22;19919;-77
2022/03/27 17:10:01;;;;;;;;;;;;;;;18.00;44.17;103049.03;6250540;22;19912;-76
2022/03/27 17:12:26;;;;;;;;;;;;;;;17.98;43.82;103047.25;6276077;22;19989;-76
2022/03/27 17:14:55;;;;;;;;;;;;;;;17.99;44.37;103043.81;6250592;22;20213;-75
2022/03/27 17:17:21;;;;;;;;;;;;;;;18.04;44.70;103042.19;6276517;22;19986;-75
2022/03/27 17:19:46;;;;;;;;;;;;;;;18.06;44.79;103043.97;6277820;22;19918;-75
2022/03/27 17:22:12;;;;;;;;;;;;;;;17.99;44.94;103054.25;6276878;22;19911;-75
2022/03/27 17:24:37;;;;;;;;;;;;;;;18.00;45.17;103048.16;6278626;22;19958;-75
2022/03/27 17:27:02;;;;;;;;;;;;;;;17.97;45.11;103050.72;6276226;22;20244;-75
2022/03/27 17:29:27;;;;;;;;;;;;;;;17.91;45.15;103043.63;6277688;22;19969;-75
2022/03/27 17:31:54;;;;;;;;;;;;;;;17.93;45.40;103049.75;6276355;22;19915;-76
2022/03/27 17:34:19;;;;;;;;;;;;;;;17.96;45.62;103054.16;6276270;22;19912;-77
2022/03/27 17:36:44;;;;;;;;;;;;;;;17.96;46.01;103049.81;6276570;22;19937;-75
2022/03/27 17:39:09;;;;;;;;;;;;;;;18.02;46.30;103046.47;6276424;22;19961;-76
2022/03/27 17:41:35;;;;;;;;;;;;;;;18.01;45.97;103052.56;6250871;22;19914;-77
2022/03/27 17:44:01;;;;;;;;;;;;;;;17.95;46.01;103050.66;6277684;22;20278;-76
2022/03/27 17:46:26;;;;;;;;;;;;;;;17.96;45.88;103059.34;6250591;22;19914;-77
2022/03/27 17:48:52;;;;;;;;;;;;;;;17.94;46.18;103048.88;6276135;22;19915;-76
2022/03/27 17:51:18;;;;;;;;;;;;;;;17.94;45.99;103056.69;6276026;22;20320;-76
2022/03/27 17:53:43;;;;;;;;;;;;;;;17.96;45.98;103057.63;6276268;22;19918;-74
2022/03/27 17:56:10;;;;;;;;;;;;;;;17.94;45.91;103050.63;6277497;22;19913;-75
2022/03/27 17:58:36;;;;;;;;;;;;;;;17.92;45.48;103052.31;6250467;22;19934;-76
2022/03/27 18:01:02;;;;;;;;;;;;;;;17.91;46.97;103059.25;6277568;22;19907;-76
2022/03/27 18:03:27;;;;;;;;;;;;;;;17.86;47.65;103063.47;6251433;22;19957;-76
2022/03/27 18:05:53;;;;;;;;;;;;;;;17.86;47.67;103056.53;6276341;22;19919;-76
2022/03/27 18:08:18;;;;;;;;;;;;;;;17.86;47.76;103066.94;6277479;22;19988;-76
2022/03/27 18:10:44;;;;;;;;;;;;;;;17.88;47.49;103067.88;6252631;22;19978;-76
2022/03/27 18:13:09;;;;;;;;;;;;;;;17.90;47.24;103067.91;6252580;22;19914;-76
2022/03/27 18:15:36;;;;;;;;;;;;;;;17.88;47.12;103072.22;6278101;22;19912;-77
2022/03/27 18:18:02;;;;;;;;;;;;;;;17.89;46.52;103074.81;6252684;22;19907;-75
2022/03/27 18:20:27;;;;;;;;;;;;;;;17.91;46.73;103076.59;6279461;22;20343;-76
2022/03/27 18:22:52;;;;;;;;;;;;;;;17.87;47.10;103075.63;6252804;22;20304;-76
2022/03/27 18:25:17;;;;;;;;;;;;;;;17.93;47.00;103080.13;6280579;22;20244;-75
2022/03/27 18:27:43;;;;;;;;;;;;;;;17.92;46.97;103075.75;6277710;22;19915;-75
2022/03/27 18:30:09;;;;;;;;;;;;;;;17.91;47.34;103079.22;6279619;22;20320;-75
2022/03/27 18:32:35;;;;;;;;;;;;;;;17.89;47.14;103081.78;6252238;22;19912;-75
2022/03/27 18:35:00;;;;;;;;;;;;;;;17.90;47.02;103083.56;6279347;22;19907;-75
2022/03/27 18:37:25;;;;;;;;;;;;;;;17.92;47.33;103074.06;6277786;22;19960;-75
2022/03/27 18:39:51;;;;;;;;;;;;;;;17.85;46.96;103077.31;6279226;22;19986;-74
2022/03/27 18:42:16;;;;;;;;;;;;;;;17.85;47.06;103075.59;6279349;22;19922;-75
2022/03/27 18:44:41;;;;;;;;;;;;;;;17.83;46.66;103079.00;6277809;22;19911;-75
2022/03/27 18:47:07;;;;;;;;;;;;;;;17.81;46.53;103076.34;6279595;22;19911;-75
2022/03/27 18:49:35;;;;;;;;;;;;;;;17.78;46.79;103078.00;6280106;22;19934;-75
2022/03/27 18:52:00;;;;;;;;;;;;;;;17.79;46.65;103082.34;6279532;22;19960;-75
2022/03/27 18:54:26;;;;;;;;;;;;;;;17.74;46.51;103074.41;6279582;22;19978;-74
2022/03/27 18:56:51;;;;;;;;;;;;;;;17.75;46.49;103068.38;6277803;22;19972;-75
2022/03/27 18:59:16;;;;;;;;;;;;;;;17.77;46.52;103071.91;6277830;22;19922;-75
2022/03/27 19:01:42;;;;;;;;;;;;;;;17.78;46.28;103072.78;6279004;22;20220;-74
2022/03/27 19:04:07;;;;;;;;;;;;;;;17.76;46.50;103074.47;6277487;22;19943;-75
2022/03/27 19:06:33;;;;;;;;;;;;;;;17.70;46.44;103069.97;6278729;22;19915;-75
2022/03/27 19:08:58;;;;;;;;;;;;;;;17.73;46.60;103074.41;6277178;22;19915;-75
2022/03/27 19:11:24;;;;;;;;;;;;;;;17.70;46.79;103067.38;6278860;22;19930;-75
2022/03/27 19:13:49;;;;;;;;;;;;;;;17.74;46.40;103073.53;6277413;22;19911;-75
2022/03/27 19:16:16;;;;;;;;;;;;;;;17.72;46.74;103076.09;6279101;22;20338;-75
2022/03/27 19:18:46;;;;;;;;;;;;;;;17.74;46.53;103077.03;6278843;22;19908;-75
2022/03/27 19:21:14;;;;;;;;;;;;;;;17.67;46.65;103078.59;6279057;22;19915;-75
2022/03/27 19:23:39;;;;;;;;;;;;;;;17.66;46.53;103076.84;6277274;22;19915;-75
2022/03/27 19:26:05;;;;;;;;;;;;;;;17.71;46.25;103078.69;6277310;22;19911;-75
2022/03/27 19:28:30;;;;;;;;;;;;;;;17.72;46.39;103081.31;6277145;22;19918;-75
2022/03/27 19:30:55;;;;;;;;;;;;;;;17.69;46.02;103089.94;6277116;22;19993;-76
2022/03/27 19:33:21;;;;;;;;;;;;;;;17.68;46.21;103082.06;6277312;22;20282;-76
2022/03/27 19:35:46;;;;;;;;;;;;;;;17.67;46.41;103088.13;6277275;22;19912;-75
2022/03/27 19:38:12;;;;;;;;;;;;;;;17.67;46.28;103082.91;6277041;22;19962;-75
2022/03/27 19:40:37;;;;;;;;;;;;;;;17.68;46.16;103076.84;6278944;22;19907;-75
2022/03/27 19:43:02;;;;;;;;;;;;;;;17.68;46.30;103080.38;6279642;22;19956;-77
2022/03/27 19:45:29;;;;;;;;;;;;;;;17.62;46.55;103075.00;6279649;22;19978;-75
2022/03/27 19:47:54;;;;;;;;;;;;;;;17.67;46.59;103075.97;6279133;22;19911;-75
2022/03/27 19:50:20;;;;;;;;;;;;;;;17.68;46.49;103066.44;6278071;22;20244;-76
2022/03/27 19:52:46;;;;;;;;;;;;;;;17.63;46.42;103070.66;6277758;22;19945;-74